createdAt,value
2023-04-25T00:00:53.977Z,100.00
2023-04-25T00:03:22.358Z,100.00
2023-04-25T00:05:50.048Z,100.00
2023-04-25T00:08:18.509Z,100.00
2023-04-25T00:10:45.258Z,100.00
2023-04-25T00:13:12.732Z,100.00
2023-04-25T00:15:42.730Z,100.00
2023-04-25T00:18:09.982Z,100.00
2023-04-25T00:20:37.041Z,100.00
2023-04-25T00:23:03.640Z,100.00
2023-04-25T00:25:30.484Z,100.00
2023-04-25T00:27:57.691Z,100.00
2023-04-25T00:30:24.471Z,100.00
2023-04-25T00:32:51.674Z,100.00
2023-04-25T00:35:18.313Z,100.00
2023-04-25T00:37:46.305Z,100.00
2023-04-25T00:40:12.993Z,100.00
2023-04-25T00:42:41.271Z,100.00
2023-04-25T00:45:10.390Z,100.00
2023-04-25T00:47:38.547Z,100.00
2023-04-25T00:50:06.129Z,100.00
2023-04-25T00:52:32.730Z,100.00
2023-04-25T00:55:00.017Z,100.00
2023-04-25T00:57:26.821Z,100.00
2023-04-25T00:59:54.530Z,100.00
2023-04-25T01:02:23.719Z,100.00
2023-04-25T01:04:51.867Z,100.00
2023-04-25T01:07:18.754Z,100.00
2023-04-25T01:09:45.405Z,100.00
2023-04-25T01:12:12.256Z,100.00
2023-04-25T01:14:39.584Z,100.00
2023-04-25T01:17:06.488Z,100.00
2023-04-25T01:19:33.231Z,100.00
2023-04-25T01:21:59.910Z,100.00
2023-04-25T01:24:27.083Z,100.00
2023-04-25T01:26:57.311Z,100.00
2023-04-25T01:29:24.524Z,100.00
2023-04-25T01:31:53.574Z,100.00
2023-04-25T01:34:20.747Z,100.00
2023-04-25T01:36:51.378Z,100.00
2023-04-25T01:39:18.833Z,100.00
2023-04-25T01:41:49.700Z,100.00
2023-04-25T01:44:16.600Z,100.00
2023-04-25T01:46:46.634Z,100.00
2023-04-25T01:49:13.342Z,100.00
2023-04-25T01:51:40.008Z,100.00
2023-04-25T01:54:06.816Z,100.00
2023-04-25T01:56:37.682Z,100.00
2023-04-25T01:59:07.644Z,100.00
2023-04-25T02:01:34.413Z,100.00
2023-04-25T02:04:02.955Z,100.00
2023-04-25T02:06:29.725Z,100.00
2023-04-25T02:08:56.333Z,100.00
2023-04-25T02:11:23.282Z,100.00
2023-04-25T02:13:50.128Z,100.00
2023-04-25T02:16:16.976Z,100.00
2023-04-25T02:18:44.099Z,100.00
2023-04-25T02:21:10.761Z,100.00
2023-04-25T02:23:37.461Z,100.00
2023-04-25T02:26:04.278Z,100.00
2023-04-25T02:28:32.259Z,100.00
2023-04-25T02:31:01.482Z,100.00
2023-04-25T02:33:28.129Z,100.00
2023-04-25T02:35:54.714Z,100.00
2023-04-25T02:38:21.292Z,100.00
2023-04-25T02:40:49.480Z,100.00
2023-04-25T02:43:17.102Z,100.00
2023-04-25T02:45:43.714Z,100.00
2023-04-25T02:48:10.326Z,100.00
2023-04-25T02:50:37.054Z,100.00
2023-04-25T02:53:03.666Z,100.00
2023-04-25T02:55:30.267Z,100.00
2023-04-25T02:57:57.538Z,100.00
2023-04-25T03:00:25.858Z,100.00
2023-04-25T03:02:52.525Z,100.00
2023-04-25T03:05:20.631Z,100.00
2023-04-25T03:07:47.270Z,100.00
2023-04-25T03:10:14.082Z,100.00
2023-04-25T03:12:40.722Z,100.00
2023-04-25T03:15:07.666Z,100.00
2023-04-25T03:17:34.364Z,100.00
2023-04-25T03:20:01.553Z,100.00
2023-04-25T03:22:29.722Z,100.00
2023-04-25T03:24:56.230Z,100.00
2023-04-25T03:27:22.864Z,100.00
2023-04-25T03:29:49.412Z,100.00
2023-04-25T03:32:16.083Z,100.00
2023-04-25T03:34:42.753Z,100.00
2023-04-25T03:37:09.342Z,100.00
2023-04-25T03:39:36.148Z,100.00
2023-04-25T03:42:03.994Z,100.00
2023-04-25T03:44:30.630Z,100.00
2023-04-25T03:46:57.567Z,100.00
2023-04-25T03:49:24.143Z,100.00
2023-04-25T03:51:50.867Z,100.00
2023-04-25T03:54:17.698Z,100.00
2023-04-25T03:56:44.364Z,100.00
2023-04-25T03:59:11.246Z,100.00
2023-04-25T04:01:37.974Z,100.00
2023-04-25T04:04:05.162Z,100.00
2023-04-25T04:06:34.187Z,100.00
2023-04-25T04:09:00.837Z,100.00
2023-04-25T04:11:27.937Z,100.00
2023-04-25T04:13:54.496Z,100.00
2023-04-25T04:16:21.410Z,100.00
2023-04-25T04:18:48.153Z,100.00
2023-04-25T04:21:14.779Z,100.00
2023-04-25T04:23:41.589Z,100.00
2023-04-25T04:26:10.008Z,100.00
2023-04-25T04:28:36.905Z,100.00
2023-04-25T04:31:04.819Z,100.00
2023-04-25T04:33:32.092Z,100.00
2023-04-25T04:35:59.017Z,100.00
2023-04-25T04:38:27.575Z,100.00
2023-04-25T04:40:54.901Z,100.00
2023-04-25T04:43:21.586Z,100.00
2023-04-25T04:45:48.714Z,100.00
2023-04-25T04:48:15.543Z,100.00
2023-04-25T04:50:46.010Z,100.00
2023-04-25T04:53:12.922Z,100.00
2023-04-25T04:55:39.947Z,100.00
2023-04-25T04:58:06.702Z,100.00
2023-04-25T05:00:34.185Z,100.00
2023-04-25T05:03:01.259Z,100.00
2023-04-25T05:05:28.040Z,100.00
2023-04-25T05:07:55.928Z,100.00
2023-04-25T05:10:23.572Z,100.00
2023-04-25T05:12:50.710Z,100.00
2023-04-25T05:15:17.354Z,100.00
2023-04-25T05:17:44.064Z,100.00
2023-04-25T05:20:11.545Z,100.00
2023-04-25T05:22:38.525Z,100.00
2023-04-25T05:25:05.705Z,100.00
2023-04-25T05:27:32.338Z,100.00
2023-04-25T05:29:58.892Z,100.00
2023-04-25T05:32:26.414Z,100.00
2023-04-25T05:34:53.373Z,100.00
2023-04-25T05:37:19.935Z,100.00
2023-04-25T05:39:46.577Z,100.00
2023-04-25T05:42:13.088Z,100.00
2023-04-25T05:44:39.817Z,100.00
2023-04-25T05:47:06.470Z,100.00
2023-04-25T05:49:33.139Z,100.00
2023-04-25T05:51:59.742Z,100.00
2023-04-25T05:54:26.416Z,100.00
2023-04-25T05:56:53.010Z,100.00
2023-04-25T05:59:19.678Z,100.00
2023-04-25T06:01:48.506Z,100.00
2023-04-25T06:04:16.023Z,100.00
2023-04-25T06:06:42.730Z,100.00
2023-04-25T06:09:09.516Z,100.00
2023-04-25T06:11:36.398Z,100.00
2023-04-25T06:14:03.021Z,100.00
2023-04-25T06:16:29.863Z,100.00
2023-04-25T06:18:56.640Z,100.00
2023-04-25T06:21:23.289Z,100.00
2023-04-25T06:23:50.703Z,100.00
2023-04-25T06:26:17.881Z,100.00
2023-04-25T06:28:44.458Z,100.00
2023-04-25T06:31:11.276Z,100.00
2023-04-25T06:33:38.005Z,100.00
2023-04-25T06:36:04.929Z,100.00
2023-04-25T06:38:32.134Z,100.00
2023-04-25T06:40:58.749Z,100.00
2023-04-25T06:43:25.862Z,100.00
2023-04-25T06:45:52.517Z,100.00
2023-04-25T06:48:19.043Z,100.00
2023-04-25T06:50:45.733Z,100.00
2023-04-25T06:53:12.678Z,100.00
2023-04-25T06:55:39.532Z,100.00
2023-04-25T06:58:06.114Z,100.00
2023-04-25T07:00:34.565Z,100.00
2023-04-25T07:03:01.715Z,100.00
2023-04-25T07:05:28.548Z,100.00
2023-04-25T07:07:56.374Z,100.00
2023-04-25T07:10:23.828Z,100.00
2023-04-25T07:12:51.194Z,100.00
2023-04-25T07:15:18.963Z,100.00
2023-04-25T07:17:45.640Z,100.00
2023-04-25T07:20:12.766Z,100.00
2023-04-25T07:22:39.443Z,100.00
2023-04-25T07:25:07.006Z,100.00
2023-04-25T07:27:33.947Z,100.00
2023-04-25T07:30:00.636Z,100.00
2023-04-25T07:32:27.861Z,100.00
2023-04-25T07:34:54.578Z,100.00
2023-04-25T07:37:21.288Z,100.00
2023-04-25T07:39:48.037Z,100.00
2023-04-25T07:42:14.690Z,100.00
2023-04-25T07:44:42.052Z,100.00
2023-04-25T07:47:11.451Z,100.00
2023-04-25T07:49:39.254Z,100.00
2023-04-25T07:52:09.729Z,100.00
2023-04-25T07:54:36.694Z,100.00
2023-04-25T07:57:05.568Z,100.00
2023-04-25T07:59:33.918Z,100.00
2023-04-25T08:02:02.232Z,100.00
2023-04-25T08:04:29.104Z,100.00
2023-04-25T08:06:55.814Z,100.00
2023-04-25T08:09:26.073Z,100.00
2023-04-25T08:11:52.808Z,100.00
2023-04-25T13:02:35.107Z,62.22
2023-04-25T13:05:01.932Z,57.94
2023-04-25T13:07:28.641Z,59.32
2023-04-25T13:09:55.481Z,59.54
2023-04-25T13:12:22.348Z,57.50
2023-04-25T13:14:48.957Z,57.07
2023-04-25T13:17:17.042Z,60.01
2023-04-25T13:19:43.825Z,57.24
2023-04-25T13:25:50.705Z,55.20
2023-04-25T13:28:26.891Z,60.39
2023-04-25T13:30:57.384Z,58.52
2023-04-25T13:33:24.105Z,62.68
2023-04-25T13:36:00.758Z,64.64
2023-04-25T13:38:28.661Z,61.33
2023-04-25T13:40:55.413Z,64.08
2023-04-25T13:43:25.450Z,56.83
2023-04-25T13:45:52.671Z,55.33
2023-04-25T13:48:21.171Z,52.06
2023-04-25T13:50:48.306Z,58.36
2023-04-25T13:53:15.889Z,58.08
2023-04-25T13:55:43.598Z,57.07
2023-04-25T13:58:11.037Z,57.30
2023-04-25T14:00:40.169Z,59.28
2023-04-25T14:03:10.423Z,56.55
2023-04-25T14:05:41.315Z,58.71
2023-04-25T14:08:12.506Z,60.69
2023-04-25T14:10:39.019Z,61.35
2023-04-25T14:13:07.012Z,61.33
2023-04-25T14:15:37.423Z,62.68
2023-04-25T14:18:04.280Z,61.32
2023-04-25T14:20:31.119Z,59.02
2023-04-25T14:22:59.401Z,61.40
2023-04-25T14:25:26.701Z,62.74
2023-04-25T14:27:55.472Z,63.94
2023-04-25T14:30:23.932Z,64.46
2023-04-25T14:32:51.030Z,61.24
2023-04-25T14:35:17.988Z,64.95
2023-04-25T14:37:45.089Z,60.84
2023-04-25T14:40:14.067Z,61.04
2023-04-25T14:42:41.081Z,57.27
2023-04-25T14:45:10.631Z,62.30
2023-04-25T14:47:38.832Z,59.18
2023-04-25T14:50:07.350Z,59.76
2023-04-25T14:52:34.000Z,59.91
2023-04-25T14:55:06.098Z,62.96
2023-04-25T14:57:34.847Z,60.19
2023-04-25T15:00:02.206Z,59.84
2023-04-25T15:02:29.437Z,61.07
2023-04-25T15:04:58.493Z,62.50
2023-04-25T15:07:25.677Z,61.79
2023-04-25T15:09:54.308Z,60.04
2023-04-25T15:12:22.848Z,60.46
2023-04-25T15:14:49.544Z,60.89
2023-04-25T15:17:16.235Z,61.56
2023-04-25T15:19:42.970Z,58.85
2023-04-25T15:22:10.097Z,59.62
2023-04-25T15:24:36.923Z,62.51
2023-04-25T15:27:07.483Z,64.34
2023-04-25T15:29:34.119Z,62.39
2023-04-25T15:32:00.940Z,62.42
2023-04-25T15:34:27.963Z,60.75
2023-04-25T15:36:56.503Z,61.17
2023-04-25T15:39:23.169Z,60.82
2023-04-25T15:41:49.848Z,61.18
2023-04-25T15:44:16.438Z,62.11
2023-04-25T15:46:44.384Z,60.48
2023-04-25T15:49:11.130Z,60.87
2023-04-25T15:51:37.773Z,63.64
2023-04-25T15:54:04.437Z,60.79
2023-04-25T15:56:32.066Z,62.52
2023-04-25T15:59:00.624Z,60.55
2023-04-25T16:01:30.742Z,63.68
2023-04-25T16:06:27.706Z,61.48
2023-04-25T16:08:55.117Z,60.40
2023-04-25T16:11:21.776Z,59.99
2023-04-25T16:13:50.619Z,61.26
2023-04-25T16:16:17.448Z,60.99
2023-04-25T16:18:44.403Z,59.51
2023-04-25T16:21:16.960Z,59.32
2023-04-25T16:23:43.982Z,63.18
2023-04-25T16:26:10.970Z,61.60
2023-04-25T16:28:37.550Z,62.60
2023-04-25T16:31:04.273Z,62.60
2023-04-25T16:33:31.664Z,63.54
2023-04-25T16:35:58.442Z,58.87
2023-04-25T16:38:28.004Z,62.21
2023-04-25T16:40:54.717Z,60.81
2023-04-25T16:43:21.430Z,60.43
2023-04-25T16:45:48.577Z,60.27
2023-04-25T16:48:16.347Z,61.44
2023-04-25T16:50:42.968Z,61.28
2023-04-25T16:53:09.884Z,61.05
2023-04-25T16:55:38.558Z,59.06
2023-04-25T16:58:05.179Z,63.70
2023-04-25T17:00:33.676Z,62.23
2023-04-25T17:03:00.699Z,60.62
2023-04-25T17:05:27.504Z,59.62
2023-04-25T17:07:54.177Z,61.50
2023-04-25T17:10:21.326Z,60.94
2023-04-25T17:12:48.127Z,62.94
2023-04-25T17:15:14.758Z,60.87
2023-04-25T17:17:41.787Z,62.33
2023-04-25T17:20:13.736Z,61.61
2023-04-25T17:22:40.872Z,62.17
2023-04-25T17:25:09.378Z,61.60
2023-04-25T17:27:37.971Z,60.67
2023-04-25T17:30:08.433Z,61.09
2023-04-25T17:32:35.890Z,61.57
2023-04-25T17:35:02.574Z,60.75
2023-04-25T17:37:29.197Z,62.72
2023-04-25T17:39:55.851Z,65.08
2023-04-25T17:42:24.063Z,60.74
2023-04-25T17:44:50.761Z,63.98
2023-04-25T17:47:17.457Z,61.50
2023-04-25T17:49:44.089Z,64.98
2023-04-25T17:52:11.133Z,63.84
2023-04-25T17:54:38.009Z,65.77
2023-04-25T17:57:04.880Z,66.85
2023-04-25T17:59:31.578Z,66.13
2023-04-25T18:02:00.004Z,66.18
2023-04-25T18:04:27.191Z,66.09
2023-04-25T18:06:55.849Z,67.96
2023-04-25T18:09:23.778Z,66.77
2023-04-25T18:11:54.554Z,67.27
2023-04-25T18:14:22.190Z,67.57
2023-04-25T18:16:53.757Z,67.74
2023-04-25T18:19:21.698Z,67.46
2023-04-25T18:21:54.595Z,66.77
2023-04-25T18:24:26.351Z,65.15
2023-04-25T18:26:55.046Z,67.36
2023-04-25T18:29:32.260Z,69.51
2023-04-25T18:32:02.594Z,65.74
2023-04-25T18:34:30.135Z,67.24
2023-04-25T18:36:57.160Z,66.05
2023-04-25T18:39:27.372Z,68.20
2023-04-25T18:42:04.348Z,65.05
2023-04-25T18:44:33.914Z,65.79
2023-04-25T18:47:00.927Z,67.31
2023-04-25T18:49:28.164Z,66.69
2023-04-25T18:51:56.310Z,65.97
2023-04-25T18:54:22.965Z,64.14
2023-04-25T18:56:49.728Z,63.23
2023-04-25T18:59:17.320Z,63.23
2023-04-25T19:01:46.185Z,64.76
2023-04-25T19:04:12.909Z,67.34
2023-04-25T19:06:41.474Z,68.84
2023-04-25T19:09:12.106Z,69.23
2023-04-25T19:11:38.922Z,68.30
2023-04-25T19:14:05.780Z,72.04
2023-04-25T19:16:38.830Z,74.40
2023-04-25T19:19:07.688Z,74.04
2023-04-25T19:21:36.216Z,74.71
2023-04-25T19:24:06.525Z,74.72
2023-04-25T19:26:33.187Z,75.21
2023-04-25T19:29:18.124Z,72.21
2023-04-25T19:31:45.878Z,71.21
2023-04-25T19:34:13.906Z,69.98
2023-04-25T19:36:43.525Z,71.72
2023-04-25T19:39:11.994Z,72.29
2023-04-25T19:41:40.864Z,71.92
2023-04-25T19:44:09.387Z,70.25
2023-04-25T19:46:36.932Z,72.00
2023-04-25T19:49:08.364Z,72.43
2023-04-25T19:51:37.392Z,74.49
2023-04-25T19:54:04.485Z,74.57
2023-04-25T19:56:34.710Z,75.58
2023-04-25T19:59:01.361Z,75.37
2023-04-25T20:01:28.414Z,74.64
2023-04-25T20:03:56.132Z,74.99
2023-04-25T20:06:23.161Z,74.83
2023-04-25T20:08:52.979Z,74.57
2023-04-25T20:11:20.061Z,75.37
2023-04-25T20:13:48.687Z,73.81
2023-04-25T20:16:20.616Z,74.50
2023-04-25T20:18:48.715Z,74.13
2023-04-25T20:21:16.904Z,74.44
2023-04-25T20:23:43.995Z,75.10
2023-04-25T20:26:12.942Z,76.21
2023-04-25T20:28:40.167Z,76.82
2023-04-25T20:31:09.078Z,77.62
2023-04-25T20:33:37.807Z,78.20
2023-04-25T20:36:06.790Z,78.25
2023-04-25T20:38:38.537Z,78.73
2023-04-25T20:41:05.135Z,80.71
2023-04-25T20:43:32.018Z,79.64
2023-04-25T20:46:00.914Z,81.24
2023-04-25T20:48:27.513Z,82.08
2023-04-25T20:50:55.038Z,82.17
2023-04-25T20:53:24.033Z,81.88
2023-04-25T20:55:52.319Z,81.94
2023-04-25T20:58:20.679Z,82.99
2023-04-25T21:00:47.693Z,83.41
2023-04-25T21:03:15.233Z,83.87
2023-04-25T21:05:42.109Z,84.76
2023-04-25T21:08:10.255Z,84.88
2023-04-25T21:10:37.697Z,84.45
2023-04-25T21:13:04.389Z,85.71
2023-04-25T21:15:31.250Z,85.28
2023-04-25T21:17:57.961Z,86.02
2023-04-25T21:20:24.556Z,85.68
2023-04-25T21:22:53.847Z,85.99
2023-04-25T21:25:30.121Z,86.33
2023-04-25T21:27:57.840Z,86.51
2023-04-25T21:30:27.432Z,87.32
2023-04-25T21:32:55.075Z,86.83
2023-04-25T21:35:23.084Z,87.75
2023-04-25T21:37:50.890Z,88.27
2023-04-25T21:40:19.830Z,87.70
2023-04-25T21:42:53.429Z,87.52
2023-04-25T21:45:23.476Z,88.65
2023-04-25T21:47:50.799Z,88.83
2023-04-25T21:50:17.727Z,89.18
2023-04-25T21:52:46.328Z,90.13
2023-04-25T21:55:12.972Z,89.69
2023-04-25T21:57:39.680Z,91.10
2023-04-25T22:00:21.482Z,92.39
2023-04-25T22:02:48.736Z,93.13
2023-04-25T22:05:15.577Z,93.29
2023-04-25T22:07:42.163Z,92.96
2023-04-25T22:10:10.951Z,92.80
2023-04-25T22:12:37.809Z,93.33
2023-04-25T22:15:04.788Z,92.86
2023-04-25T22:17:31.679Z,92.77
2023-04-25T22:19:59.555Z,92.55
2023-04-25T22:22:26.529Z,92.88
2023-04-25T22:24:53.312Z,92.84
2023-04-25T22:27:22.404Z,93.03
2023-04-25T22:29:50.933Z,92.86
2023-04-25T22:32:19.860Z,93.52
2023-04-25T22:34:46.697Z,93.42
2023-04-25T22:37:13.306Z,93.19
2023-04-25T22:39:40.337Z,95.64
2023-04-25T22:42:08.763Z,95.47
2023-04-25T22:44:37.417Z,97.61
2023-04-25T22:47:04.009Z,95.88
2023-04-25T22:49:30.618Z,96.47
2023-04-25T22:51:57.524Z,98.09
2023-04-25T22:54:24.242Z,97.06
2023-04-25T22:56:51.137Z,96.43
2023-04-25T22:59:18.064Z,97.48
2023-04-25T23:01:44.939Z,98.02
2023-04-25T23:04:11.908Z,99.09
2023-04-25T23:06:38.726Z,97.69
2023-04-25T23:09:06.060Z,98.10
2023-04-25T23:11:32.847Z,98.98
2023-04-25T23:14:00.703Z,99.74
2023-04-25T23:16:29.888Z,99.76
2023-04-25T23:18:56.517Z,99.28
2023-04-25T23:21:23.244Z,98.28
2023-04-25T23:23:50.365Z,98.06
2023-04-25T23:26:16.963Z,97.94
2023-04-25T23:28:45.128Z,96.84
2023-04-25T23:31:12.870Z,97.28
2023-04-25T23:33:41.746Z,97.11
2023-04-25T23:36:08.581Z,97.40
2023-04-25T23:38:35.863Z,98.35
2023-04-25T23:41:02.431Z,100.00
2023-04-25T23:43:29.082Z,100.00
2023-04-25T23:45:55.944Z,100.00
2023-04-25T23:48:23.048Z,100.00
2023-04-25T23:50:49.748Z,100.00
2023-04-25T23:53:16.402Z,100.00
2023-04-25T23:55:43.059Z,100.00
2023-04-25T23:58:10.032Z,100.00
